Terminal Aerodrome Forecast
Issued by NWS St Louis, MO

Home | Current Version | Previous Version | Text Only | Print | Product List | Glossary On
Versions: 1 2 3 4 5 6 7 8 9 10 11 12 13 14 15 16 17 18 19 20 21 22
000
FTUS43 KLSX 020500
TAFSTL
TAF
KSTL 020520Z 0206/0312 VRB04KT P6SM SCT100 BKN250
     FM021000 00000KT 5SM BR SKC
     FM021300 VRB03KT P6SM SKC
     FM021700 05006KT P6SM SCT050=

USA.gov is the U.S. government's official web portal to all federal, state and local government web resources and services.